RYR6EW LMML-LIPE
Flight info
| Callsign | RYR6EW |
|---|---|
| Flight time | N/A |
| Altitude | 38000 |
| Route | GZO M622 SOPIR DCT ADEXI DCT GIANO DCT RITEB DCT NIKMA DCT GAVRA M726 PELEG |
| Aircraft | B738/M-SDE3FGILRWY/SB1 |
Departure
| Time | 2026-05-05 07:36 |
|---|---|
| Airport | Malta International Airport (LMML) |
Arrival
| Time | N/A |
|---|---|
| Airport | Bologna Guglielmo Marconi Airport (LIPE) |
| Time | Latitude | Longitude | Altitude | Speed | Heading |
|---|---|---|---|---|---|
| 2026-05-05 07:08 | 35.84854 | 14.49455 | 308 ft | 0 kts | 360° |
| 2026-05-05 07:29 | 35.84841 | 14.49455 | 308 ft | 4 kts | 0° |
| 2026-05-05 07:29 | 35.84815 | 14.49457 | 308 ft | 4 kts | 353° |
| 2026-05-05 07:30 | 35.84788 | 14.49462 | 308 ft | 4 kts | 347° |
| 2026-05-05 07:30 | 35.84756 | 14.49473 | 308 ft | 0 kts | 343° |
| 2026-05-05 07:31 | 35.84757 | 14.49472 | 308 ft | 2 kts | 343° |
| 2026-05-05 07:31 | 35.84808 | 14.49426 | 308 ft | 16 kts | 316° |
| 2026-05-05 07:32 | 35.84889 | 14.49325 | 308 ft | 16 kts | 314° |
| 2026-05-05 07:32 | 35.84942 | 14.49207 | 308 ft | 13 kts | 267° |
| 2026-05-05 07:32 | 35.84900 | 14.49119 | 308 ft | 13 kts | 285° |
| 2026-05-05 07:32 | 35.84933 | 14.49006 | 308 ft | 9 kts | 258° |
| 2026-05-05 07:33 | 35.84919 | 14.48982 | 308 ft | 0 kts | 217° |
| 2026-05-05 07:34 | 35.84886 | 14.48970 | 308 ft | 10 kts | 180° |
| 2026-05-05 07:34 | 35.84816 | 14.48961 | 308 ft | 14 kts | 240° |
| 2026-05-05 07:35 | 35.84783 | 14.48945 | 308 ft | 5 kts | 145° |
| 2026-05-05 07:35 | 35.84779 | 14.48949 | 308 ft | 0 kts | 135° |
| 2026-05-05 07:35 | 35.84764 | 14.48968 | 308 ft | 19 kts | 135° |
| 2026-05-05 07:35 | 35.84440 | 14.49367 | 308 ft | 109 kts | 137° |
| 2026-05-05 07:36 | 35.83744 | 14.50243 | 513 ft | 163 kts | 134° |
| 2026-05-05 07:36 | 35.82980 | 14.51268 | 1605 ft | 157 kts | 134° |
| 2026-05-05 07:36 | 35.82041 | 14.51881 | 2639 ft | 159 kts | 173° |
| 2026-05-05 07:36 | 35.80915 | 14.51572 | 3168 ft | 182 kts | 209° |
| 2026-05-05 07:37 | 35.79946 | 14.50383 | 3558 ft | 212 kts | 231° |
| 2026-05-05 07:37 | 35.79043 | 14.48779 | 3906 ft | 242 kts | 235° |
| 2026-05-05 07:37 | 35.78127 | 14.46985 | 4659 ft | 254 kts | 237° |
| 2026-05-05 07:37 | 35.77238 | 14.45042 | 5371 ft | 268 kts | 248° |
| 2026-05-05 07:38 | 35.76953 | 14.42753 | 6272 ft | 273 kts | 273° |
| 2026-05-05 07:38 | 35.77473 | 14.40512 | 7228 ft | 277 kts | 297° |
| 2026-05-05 07:38 | 35.78717 | 14.38693 | 8181 ft | 280 kts | 321° |
| 2026-05-05 07:38 | 35.80364 | 14.37392 | 9135 ft | 282 kts | 329° |
| 2026-05-05 07:39 | 35.82086 | 14.36213 | 10084 ft | 284 kts | 330° |
| 2026-05-05 07:39 | 35.83258 | 14.35423 | 10694 ft | 286 kts | 331° |
| 2026-05-05 07:39 | 35.85012 | 14.34291 | 11414 ft | 295 kts | 332° |
| 2026-05-05 07:39 | 35.86898 | 14.33004 | 12291 ft | 298 kts | 329° |
| 2026-05-05 07:40 | 35.88704 | 14.31699 | 13132 ft | 302 kts | 328° |
| 2026-05-05 07:40 | 35.90515 | 14.30370 | 13957 ft | 305 kts | 328° |
| 2026-05-05 07:40 | 35.92340 | 14.29019 | 14764 ft | 308 kts | 328° |
| 2026-05-05 07:40 | 35.94178 | 14.27650 | 15562 ft | 311 kts | 328° |
| 2026-05-05 07:41 | 35.96039 | 14.26259 | 16336 ft | 314 kts | 327° |
| 2026-05-05 07:41 | 35.97909 | 14.24856 | 17092 ft | 317 kts | 327° |
| 2026-05-05 07:41 | 35.99805 | 14.23431 | 17830 ft | 319 kts | 327° |
| 2026-05-05 07:41 | 36.01709 | 14.22001 | 18552 ft | 323 kts | 327° |
| 2026-05-05 07:42 | 36.03635 | 14.20544 | 19208 ft | 327 kts | 326° |
| 2026-05-05 07:42 | 36.05539 | 14.18982 | 19875 ft | 330 kts | 323° |
| 2026-05-05 07:42 | 36.07425 | 14.17324 | 20524 ft | 334 kts | 322° |
| 2026-05-05 07:42 | 36.09316 | 14.15628 | 21176 ft | 337 kts | 322° |
| 2026-05-05 07:43 | 36.11228 | 14.13916 | 21799 ft | 341 kts | 322° |
| 2026-05-05 07:43 | 36.13157 | 14.12194 | 22396 ft | 344 kts | 322° |
| 2026-05-05 07:43 | 36.15113 | 14.10451 | 22983 ft | 348 kts | 322° |
| 2026-05-05 07:43 | 36.17090 | 14.08690 | 23551 ft | 352 kts | 322° |
| 2026-05-05 07:44 | 36.19084 | 14.06916 | 24105 ft | 355 kts | 322° |
| 2026-05-05 07:44 | 36.21092 | 14.05130 | 24681 ft | 357 kts | 322° |
| 2026-05-05 07:44 | 36.23123 | 14.03324 | 25260 ft | 359 kts | 322° |
| 2026-05-05 07:44 | 36.25165 | 14.01526 | 25815 ft | 361 kts | 322° |
| 2026-05-05 07:45 | 36.27218 | 13.99715 | 26343 ft | 364 kts | 322° |
| 2026-05-05 07:45 | 36.29288 | 13.97884 | 26861 ft | 366 kts | 322° |
| 2026-05-05 07:45 | 36.31363 | 13.96042 | 27351 ft | 368 kts | 322° |
| 2026-05-05 07:45 | 36.33454 | 13.94183 | 27842 ft | 370 kts | 321° |
| 2026-05-05 07:46 | 36.35551 | 13.92315 | 28333 ft | 372 kts | 321° |
| 2026-05-05 07:46 | 36.37657 | 13.90437 | 28807 ft | 374 kts | 321° |
| 2026-05-05 07:46 | 36.39772 | 13.88549 | 29257 ft | 376 kts | 321° |
| 2026-05-05 07:46 | 36.41897 | 13.86650 | 29674 ft | 378 kts | 321° |
| 2026-05-05 07:47 | 36.44035 | 13.84738 | 30098 ft | 380 kts | 321° |
| 2026-05-05 07:47 | 36.46193 | 13.82809 | 30510 ft | 382 kts | 321° |
| 2026-05-05 07:47 | 36.48353 | 13.80877 | 30901 ft | 384 kts | 321° |
| 2026-05-05 07:47 | 36.50521 | 13.78935 | 31293 ft | 386 kts | 321° |
| 2026-05-05 07:48 | 36.52708 | 13.76975 | 31653 ft | 388 kts | 320° |
| 2026-05-05 07:48 | 36.54890 | 13.75016 | 32030 ft | 389 kts | 320° |
| 2026-05-05 07:48 | 36.57098 | 13.73031 | 32375 ft | 391 kts | 320° |
| 2026-05-05 07:48 | 36.59307 | 13.71042 | 32729 ft | 393 kts | 320° |
| 2026-05-05 07:49 | 36.61518 | 13.69050 | 33058 ft | 394 kts | 320° |
| 2026-05-05 07:49 | 36.63780 | 13.67010 | 33377 ft | 396 kts | 320° |
| 2026-05-05 07:49 | 36.66050 | 13.64961 | 33708 ft | 398 kts | 320° |
| 2026-05-05 07:49 | 36.68293 | 13.62935 | 34016 ft | 399 kts | 320° |
| 2026-05-05 07:50 | 36.70544 | 13.60899 | 34303 ft | 401 kts | 320° |
| 2026-05-05 07:50 | 36.72801 | 13.58857 | 34590 ft | 402 kts | 320° |
| 2026-05-05 07:50 | 36.75076 | 13.56797 | 34885 ft | 404 kts | 320° |
| 2026-05-05 07:50 | 36.77352 | 13.54735 | 35135 ft | 406 kts | 320° |
| 2026-05-05 07:51 | 36.79648 | 13.52667 | 35385 ft | 408 kts | 320° |
| 2026-05-05 07:51 | 36.81951 | 13.50591 | 35657 ft | 408 kts | 320° |
| 2026-05-05 07:51 | 36.84254 | 13.48512 | 35914 ft | 410 kts | 320° |
| 2026-05-05 07:51 | 36.86570 | 13.46417 | 36121 ft | 412 kts | 320° |
| 2026-05-05 07:52 | 36.88918 | 13.44289 | 36380 ft | 412 kts | 320° |
| 2026-05-05 07:52 | 36.91209 | 13.42211 | 36732 ft | 410 kts | 320° |
| 2026-05-05 07:52 | 36.93515 | 13.40117 | 37083 ft | 409 kts | 320° |
| 2026-05-05 07:52 | 36.95806 | 13.38035 | 37358 ft | 408 kts | 320° |
| 2026-05-05 07:53 | 36.98102 | 13.35945 | 37691 ft | 406 kts | 320° |
| 2026-05-05 07:53 | 37.00379 | 13.33871 | 37958 ft | 406 kts | 320° |
| 2026-05-05 07:53 | 37.02663 | 13.31789 | 38125 ft | 408 kts | 320° |
| 2026-05-05 07:53 | 37.04966 | 13.29688 | 38126 ft | 408 kts | 320° |
| 2026-05-05 07:54 | 37.09530 | 13.25528 | 38127 ft | 403 kts | 320° |
| 2026-05-05 07:54 | 37.14030 | 13.21426 | 38127 ft | 399 kts | 320° |
| 2026-05-05 07:55 | 37.18546 | 13.17287 | 38127 ft | 400 kts | 320° |
| 2026-05-05 07:55 | 37.23002 | 13.13192 | 38128 ft | 400 kts | 320° |